Time;durP1;ratioP1;P1;durP2;ratioP2;P2;SDS_P1;SDS_P2;PMS_P1;PMS_P2;Temp;Humidity;BMP_temperature;BMP_pressure;BME280_temperature;BME280_humidity;BME280_pressure;Samples;Min_cycle;Max_cycle;Signal;HPM_P1;HPM_P2
2024/01/12 00:00:09;;;;;;;;;;;5.50;55.30;;;3.68;59.10;102641.72;12249324;19;20250;-87
2024/01/12 00:04:15;;;;;;;;;;;5.50;55.30;;;3.73;59.11;102652.09;12250781;19;19915;-86
2024/01/12 00:08:17;;;;;;;;;;;5.50;55.30;;;3.70;59.14;102649.47;12246705;19;20038;-87
2024/01/12 00:12:18;;;;;;;;;;;5.70;55.40;;;3.73;59.01;102652.09;12248674;19;19922;-86
2024/01/12 00:16:20;;;;;;;;;;;5.50;55.30;;;3.74;58.93;102661.56;12245612;19;19915;-86
2024/01/12 00:20:21;;;;;;;;;;;5.70;55.40;;;3.67;59.06;102647.75;12248733;19;19927;-86
2024/01/12 00:24:23;;;;;;;;;;;5.50;55.30;;;3.58;58.92;102633.94;12243394;19;19923;-86
2024/01/12 00:28:27;;;;;;;;;;;5.50;55.30;;;3.70;58.94;102667.56;12244439;19;19974;-87
2024/01/12 00:32:28;;;;;;;;;;;5.50;55.30;;;3.76;59.21;102670.19;12246786;19;19991;-86
2024/01/12 00:36:30;;;;;;;;;;;5.60;55.40;;;3.67;59.19;102652.94;12244370;19;19919;-86
2024/01/12 00:40:31;;;;;;;;;;;5.50;55.30;;;3.75;59.01;102665.84;12247059;19;19951;-86
2024/01/12 00:44:32;;;;;;;;;;;5.60;55.30;;;3.83;59.01;102683.97;12244683;19;20020;-86
2024/01/12 00:48:34;;;;;;;;;;;5.60;55.30;;;3.76;58.92;102685.69;12243802;19;19949;-87
2024/01/12 00:52:36;;;;;;;;;;;5.60;55.30;;;3.73;58.86;102680.50;12244846;19;19911;-86
2024/01/12 00:56:37;;;;;;;;;;;5.60;55.70;;;3.79;59.10;102688.28;12244544;19;19922;-86
2024/01/12 01:00:39;;;;;;;;;;;5.60;55.30;;;3.90;59.19;102712.44;12246117;19;19929;-86
2024/01/12 01:04:40;;;;;;;;;;;5.60;55.30;;;3.81;59.42;102681.41;12244562;19;19927;-86
2024/01/12 01:08:42;;;;;;;;;;;5.90;55.40;;;3.91;59.06;102698.66;12239435;19;19923;-86
2024/01/12 01:12:43;;;;;;;;;;;5.60;55.30;;;3.87;59.05;102690.91;12246129;19;19981;-86
2024/01/12 01:16:45;;;;;;;;;;;5.70;55.40;;;3.65;59.17;102648.63;12239903;19;19927;-86
2024/01/12 01:20:46;;;;;;;;;;;5.60;55.30;;;3.84;59.27;102675.41;12243362;19;20389;-86
2024/01/12 01:24:48;;;;;;;;;;;5.60;55.30;;;3.91;59.09;102693.50;12243337;19;19918;-86
2024/01/12 01:28:49;;;;;;;;;;;5.70;55.40;;;3.95;59.12;102697.81;12239558;19;19925;-86
2024/01/12 01:32:51;;;;;;;;;;;5.70;55.40;;;3.93;59.02;102686.63;12244849;19;19938;-86
2024/01/12 01:36:57;;;;;;;;;;;5.70;55.40;;;3.80;59.05;102671.91;12242250;19;19929;-86
2024/01/12 01:40:58;;;;;;;;;;;5.70;55.40;;;3.65;59.24;102633.13;12258399;19;19927;-86
2024/01/12 01:45:03;;;;;;;;;;;5.70;55.40;;;3.67;58.96;102632.25;12254900;19;20367;-87
2024/01/12 01:49:05;;;;;;;;;;;5.70;55.40;;;3.94;59.18;102667.69;12254019;19;20355;-87
2024/01/12 01:53:07;;;;;;;;;;;5.70;55.40;;;3.95;59.23;102676.28;12255610;19;19910;-86
2024/01/12 01:57:09;;;;;;;;;;;5.90;55.50;;;3.86;59.22;102655.56;12253168;19;19929;-86
2024/01/12 02:01:10;;;;;;;;;;;5.80;55.30;;;3.84;59.33;102659.88;12255187;19;19962;-87
2024/01/12 02:05:14;;;;;;;;;;;5.80;55.40;;;3.94;58.95;102665.09;12253296;19;19929;-87
2024/01/12 02:09:15;;;;;;;;;;;5.70;55.30;;;3.95;59.04;102653.88;12253544;19;19923;-87
2024/01/12 02:13:16;;;;;;;;;;;5.70;55.30;;;3.96;59.12;102663.34;12253388;19;20340;-86
2024/01/12 02:17:18;;;;;;;;;;;5.70;55.40;;;3.96;59.28;102670.25;12248797;19;19923;-87
2024/01/12 02:21:19;;;;;;;;;;;5.70;55.40;;;3.84;59.24;102634.91;12254651;19;19919;-86
2024/01/12 02:25:20;;;;;;;;;;;5.70;55.40;;;3.97;59.30;102669.41;12254154;19;19999;-86
2024/01/12 02:29:22;;;;;;;;;;;5.70;55.40;;;3.94;59.32;102661.63;12254450;19;19927;-87
2024/01/12 02:33:23;;;;;;;;;;;5.70;55.40;;;4.00;59.21;102669.44;12251864;19;19918;-86
2024/01/12 02:37:25;;;;;;;;;;;5.70;55.40;;;3.97;59.29;102667.69;12250877;19;19911;-86
2024/01/12 02:41:26;;;;;;;;;;;5.70;55.40;;;3.98;59.12;102679.75;12255729;19;19946;-86
2024/01/12 02:45:27;;;;;;;;;;;5.70;55.40;;;3.85;59.16;102654.72;12253468;19;19930;-86
2024/01/12 02:49:29;;;;;;;;;;;5.70;55.40;;;3.70;59.30;102621.03;12249621;19;19943;-86
2024/01/12 02:53:30;;;;;;;;;;;5.80;55.40;;;3.96;59.14;102660.78;12248230;19;20346;-87
2024/01/12 02:57:32;;;;;;;;;;;5.70;55.40;;;3.83;59.53;102650.38;12245825;19;19919;-86
2024/01/12 03:01:34;;;;;;;;;;;5.70;55.40;;;4.02;59.32;102685.78;12250346;19;19934;-87
2024/01/12 03:05:36;;;;;;;;;;;6.00;55.50;;;3.93;59.42;102665.09;12252892;19;19923;-86
2024/01/12 03:09:38;;;;;;;;;;;5.70;55.40;;;3.92;59.33;102653.88;12251287;19;19919;-86
2024/01/12 03:13:40;;;;;;;;;;;5.70;55.40;;;3.99;59.16;102671.13;12249793;19;19915;-87
2024/01/12 03:17:42;;;;;;;;;;;5.80;55.40;;;3.94;59.25;102667.69;12245391;19;19921;-86
2024/01/12 03:21:43;;;;;;;;;;;5.70;55.40;;;3.81;59.10;102645.22;12250093;19;19922;-86
2024/01/12 03:25:45;;;;;;;;;;;5.80;55.80;;;4.01;59.08;102676.31;12250236;19;19990;-86
2024/01/12 03:29:46;;;;;;;;;;;5.70;55.40;;;4.03;59.16;102676.31;12248997;19;19936;-86
2024/01/12 03:33:48;;;;;;;;;;;5.80;55.40;;;3.91;59.27;102646.97;12248310;19;19918;-87
2024/01/12 03:37:49;;;;;;;;;;;5.70;55.70;;;3.89;59.18;102634.91;12244008;19;19919;-86
2024/01/12 03:41:51;;;;;;;;;;;5.70;55.40;;;3.92;59.40;102638.38;12250757;19;19922;-87
2024/01/12 03:45:53;;;;;;;;;;;5.70;55.40;;;3.91;59.33;102621.13;12248340;19;20679;-86
2024/01/12 03:49:54;;;;;;;;;;;5.80;55.50;;;3.79;59.33;102597.84;12249915;19;20273;-86
2024/01/12 03:53:56;;;;;;;;;;;5.70;55.50;;;3.82;59.34;102592.69;12245447;19;19914;-86
2024/01/12 03:57:58;;;;;;;;;;;5.70;55.50;;;3.92;59.38;102622.88;12247192;19;19927;-86
2024/01/12 04:02:00;;;;;;;;;;;5.60;55.40;;;3.92;59.31;102617.69;12247710;19;19923;-86
2024/01/12 04:06:06;;;;;;;;;;;5.60;55.40;;;3.89;59.18;102616.81;12246634;19;19911;-86
2024/01/12 04:10:08;;;;;;;;;;;5.70;55.60;;;3.85;59.21;102605.59;12247575;19;19923;-86
2024/01/12 04:14:09;;;;;;;;;;;5.60;55.50;;;3.84;59.30;102590.97;12247808;19;19938;-86
2024/01/12 04:18:11;;;;;;;;;;;5.60;55.50;;;3.78;59.45;102583.22;12246493;19;20333;-86
2024/01/12 04:22:12;;;;;;;;;;;5.60;55.50;;;3.87;59.20;102590.97;12247201;19;19911;-86
2024/01/12 04:26:14;;;;;;;;;;;5.60;55.50;;;3.93;59.32;102601.31;12247561;19;20374;-87
2024/01/12 04:30:15;;;;;;;;;;;5.80;55.60;;;3.95;59.32;102603.94;12248720;19;19929;-87
2024/01/12 04:34:17;;;;;;;;;;;5.60;55.60;;;3.86;59.18;102602.19;12245457;19;19911;-86
2024/01/12 04:38:19;;;;;;;;;;;5.60;55.70;;;3.60;59.31;102567.66;12243662;19;19910;-86
2024/01/12 04:42:20;;;;;;;;;;;5.60;55.60;;;3.90;59.24;102614.25;12247863;19;20279;-86
2024/01/12 04:46:22;;;;;;;;;;;5.80;55.60;;;3.83;59.34;102596.97;12246747;19;19919;-86
2024/01/12 04:50:24;;;;;;;;;;;5.60;55.70;;;3.68;59.37;102560.78;12246519;19;19915;-87
2024/01/12 04:54:25;;;;;;;;;;;5.70;55.70;;;3.89;59.36;102599.59;12244506;19;20436;-86
2024/01/12 04:58:26;;;;;;;;;;;5.90;55.70;;;3.82;59.24;102582.34;12238342;19;19915;-87
2024/01/12 05:02:28;;;;;;;;;;;5.80;55.60;;;3.93;59.03;102603.06;12247655;19;20265;-86
2024/01/12 05:06:29;;;;;;;;;;;5.60;55.60;;;3.94;59.07;102610.81;12242467;19;19926;-87
2024/01/12 05:10:30;;;;;;;;;;;5.60;55.60;;;3.95;59.42;102612.53;12245467;19;20337;-86
2024/01/12 05:14:32;;;;;;;;;;;5.60;55.60;;;3.93;59.20;102619.41;12249560;19;19915;-86
2024/01/12 05:18:33;;;;;;;;;;;5.60;55.60;;;3.69;59.18;102581.44;12252416;19;19919;-87
2024/01/12 05:22:36;;;;;;;;;;;5.60;55.60;;;3.74;59.21;102591.78;12257973;19;19931;-87
2024/01/12 05:26:37;;;;;;;;;;;5.70;55.60;;;3.91;59.25;102617.69;12257347;19;19915;-87
2024/01/12 05:30:38;;;;;;;;;;;6.00;55.80;;;3.87;59.30;102616.81;12257376;19;19911;-87
2024/01/12 05:34:40;;;;;;;;;;;5.60;55.60;;;3.90;59.36;102622.00;12252116;19;19926;-87
2024/01/12 05:38:41;;;;;;;;;;;5.60;55.90;;;3.60;59.18;102568.50;12250857;19;19919;-87
2024/01/12 05:42:42;;;;;;;;;;;5.60;55.60;;;3.70;59.42;102574.53;12260451;19;19934;-87
2024/01/12 05:46:44;;;;;;;;;;;5.60;55.50;;;3.72;59.44;102593.50;12257822;19;19945;-87
2024/01/12 05:50:45;;;;;;;;;;;5.60;55.60;;;3.83;59.44;102596.97;12260853;19;20338;-87
2024/01/12 05:54:47;;;;;;;;;;;5.60;55.70;;;3.83;59.40;102607.31;12257986;19;19939;-86
2024/01/12 05:58:48;;;;;;;;;;;5.60;55.60;;;3.70;59.30;102587.47;12257656;19;19919;-87
2024/01/12 06:02:50;;;;;;;;;;;5.60;55.70;;;3.92;59.29;102635.78;12260174;19;19926;-87
2024/01/12 06:06:52;;;;;;;;;;;5.60;55.60;;;3.84;59.29;102621.97;12260818;19;19975;-86
2024/01/12 06:10:54;;;;;;;;;;;5.60;55.70;;;3.91;59.40;102625.44;12259803;19;19926;-87
2024/01/12 06:14:55;;;;;;;;;;;5.60;55.60;;;3.95;59.50;102622.88;12257736;19;19938;-86
2024/01/12 06:18:56;;;;;;;;;;;5.70;55.70;;;3.95;59.35;102632.34;12257337;19;19915;-87
2024/01/12 06:22:58;;;;;;;;;;;5.60;55.60;;;3.67;59.52;102579.72;12257265;19;20167;-87
2024/01/12 06:26:59;;;;;;;;;;;5.70;55.60;;;3.87;59.39;102603.03;12258449;19;19922;-87
2024/01/12 06:31:00;;;;;;;;;;;5.60;55.50;;;3.86;59.32;102606.47;12254364;19;19922;-88
2024/01/12 06:35:03;;;;;;;;;;;5.60;55.50;;;3.92;59.21;102622.88;12255504;19;19918;-86
2024/01/12 06:39:05;;;;;;;;;;;5.60;55.50;;;3.85;59.44;102622.84;12257154;19;19915;-87
2024/01/12 06:43:06;;;;;;;;;;;5.60;55.50;;;3.90;59.33;102634.91;12258861;19;19923;-87
2024/01/12 06:47:07;;;;;;;;;;;5.60;55.50;;;3.80;59.29;102612.47;12255844;19;20246;-87
2024/01/12 06:51:09;;;;;;;;;;;5.80;55.50;;;3.54;59.41;102577.09;12259173;19;19911;-86
2024/01/12 06:55:10;;;;;;;;;;;5.60;55.50;;;3.72;59.43;102615.03;12256853;19;19911;-87
2024/01/12 06:59:11;;;;;;;;;;;5.60;55.50;;;3.87;59.35;102640.06;12255842;19;19995;-87
2024/01/12 07:03:13;;;;;;;;;;;5.80;55.60;;;3.78;59.35;102624.56;12258502;19;19934;-86
2024/01/12 07:07:14;;;;;;;;;;;5.60;55.50;;;3.65;59.36;102599.53;12250748;19;19934;-87
2024/01/12 07:11:16;;;;;;;;;;;5.50;55.50;;;3.73;59.41;102603.00;12255144;19;19915;-87
2024/01/12 07:15:17;;;;;;;;;;;5.50;55.50;;;3.73;59.47;102597.84;12250860;19;20339;-86
2024/01/12 07:19:19;;;;;;;;;;;5.50;55.50;;;3.61;59.23;102577.09;12255552;19;19939;-88
2024/01/12 07:23:20;;;;;;;;;;;5.50;55.60;;;3.80;59.37;102617.66;12254835;19;20329;-86
2024/01/12 07:27:21;;;;;;;;;;;5.50;55.50;;;3.73;59.36;102595.25;12254417;19;19915;-86
2024/01/12 07:31:23;;;;;;;;;;;5.50;55.50;;;3.73;59.38;102590.94;12256532;19;19919;-87
2024/01/12 07:35:24;;;;;;;;;;;5.50;55.50;;;3.75;59.46;102598.69;12249072;19;19941;-85
2024/01/12 07:39:26;;;;;;;;;;;5.50;55.50;;;3.64;59.43;102575.38;12255244;19;19936;-85
2024/01/12 07:43:27;;;;;;;;;;;5.50;55.50;;;3.72;59.36;102596.94;12253935;19;19982;-84
2024/01/12 07:47:29;;;;;;;;;;;5.40;55.50;;;3.67;59.46;102590.03;12252863;19;19934;-85
2024/01/12 07:51:30;;;;;;;;;;;5.40;55.50;;;3.70;59.43;102582.28;12252693;19;20281;-85
2024/01/12 07:55:31;;;;;;;;;;;5.60;55.60;;;3.64;59.28;102579.69;12251425;19;19974;-85
2024/01/12 07:59:33;;;;;;;;;;;5.40;55.50;;;3.69;59.39;102601.25;12249910;19;19968;-85
2024/01/12 08:03:35;;;;;;;;;;;5.50;55.60;;;3.71;59.37;102604.72;12255518;19;19971;-85
2024/01/12 08:07:37;;;;;;;;;;;5.50;55.60;;;3.35;59.31;102528.81;12241914;19;19911;-85
2024/01/12 08:11:38;;;;;;;;;;;5.40;55.60;;;3.62;59.32;102576.25;12251280;19;20678;-86
2024/01/12 08:15:40;;;;;;;;;;;5.30;55.50;;;3.61;59.58;102580.56;12247156;19;19927;-86
2024/01/12 08:19:41;;;;;;;;;;;5.50;55.50;;;3.43;59.37;102554.66;12251903;19;19922;-85
2024/01/12 08:23:42;;;;;;;;;;;5.30;55.50;;;3.48;59.67;102574.50;12250116;19;19930;-85
2024/01/12 08:27:44;;;;;;;;;;;5.30;55.50;;;3.50;59.42;102584.81;12246380;19;20295;-87
2024/01/12 08:31:45;;;;;;;;;;;5.20;55.40;;;3.50;59.50;102574.50;12250620;19;19919;-85
2024/01/12 08:35:46;;;;;;;;;;;5.20;55.50;;;3.13;59.47;102512.34;12252504;19;19930;-87
2024/01/12 08:39:48;;;;;;;;;;;5.40;55.50;;;3.36;59.43;102551.19;12254868;19;20717;-87
2024/01/12 08:43:52;;;;;;;;;;;5.20;55.50;;;3.41;59.55;102571.88;12253428;19;19919;-87
2024/01/12 08:47:54;;;;;;;;;;;5.20;55.50;;;3.54;59.56;102594.31;12249974;19;19927;-87
2024/01/12 08:51:56;;;;;;;;;;;5.20;55.50;;;3.48;59.57;102581.34;12252734;19;19930;-86
2024/01/12 08:55:57;;;;;;;;;;;5.20;55.50;;;3.41;59.36;102562.41;12253318;19;19907;-86
2024/01/12 08:59:59;;;;;;;;;;;5.20;55.50;;;3.50;59.35;102575.34;12254535;19;19922;-87
2024/01/12 09:04:03;;;;;;;;;;;5.20;55.50;;;3.36;59.42;102553.78;12254227;19;19907;-86
2024/01/12 09:08:04;;;;;;;;;;;5.20;55.50;;;3.42;59.60;102573.59;12251156;19;19919;-86
2024/01/12 09:12:07;;;;;;;;;;;5.20;55.50;;;3.49;59.41;102596.88;12253326;19;19927;-87
2024/01/12 09:16:09;;;;;;;;;;;5.20;55.50;;;3.26;59.54;102555.44;12246604;19;19914;-86
2024/01/12 09:20:11;;;;;;;;;;;5.30;55.50;;;3.28;59.47;102565.78;12254147;19;19956;-86
2024/01/12 09:24:12;;;;;;;;;;;5.20;55.50;;;3.46;59.48;102581.38;12249755;19;19939;-86
2024/01/12 09:28:14;;;;;;;;;;;5.20;55.50;;;3.56;59.29;102602.91;12245666;19;19952;-86
2024/01/12 09:32:15;;;;;;;;;;;5.20;55.50;;;3.44;59.47;102583.06;12245545;19;19938;-86
2024/01/12 09:36:17;;;;;;;;;;;5.20;55.50;;;3.58;59.58;102577.09;12238707;19;19986;-86
2024/01/12 09:40:19;;;;;;;;;;;5.20;55.50;;;3.35;59.53;102546.91;12233829;19;19926;-85
2024/01/12 09:44:20;;;;;;;;;;;5.20;55.50;;;3.49;59.67;102549.53;12237197;19;19919;-85
2024/01/12 09:48:22;;;;;;;;;;;5.20;55.50;;;3.53;59.33;102551.25;12228373;19;19926;-85
2024/01/12 09:52:23;;;;;;;;;;;5.30;55.60;;;3.39;59.40;102535.72;12235309;19;20292;-86
2024/01/12 09:56:24;;;;;;;;;;;5.30;55.50;;;3.47;59.58;102535.75;12231607;19;19930;-86
2024/01/12 10:00:27;;;;;;;;;;;5.30;55.50;;;3.24;59.64;102510.69;12241231;19;19919;-85
2024/01/12 10:04:28;;;;;;;;;;;5.20;55.50;;;3.51;59.54;102550.38;12243454;19;19933;-85
2024/01/12 10:08:36;;;;;;;;;;;5.20;55.50;;;3.51;59.55;102540.03;12243185;19;19918;-86
2024/01/12 10:12:38;;;;;;;;;;;5.20;55.60;;;3.43;59.78;102534.88;12254964;19;19919;-86
2024/01/12 10:16:39;;;;;;;;;;;5.20;55.60;;;3.42;59.58;102522.81;12248633;19;19927;-86
2024/01/12 10:20:40;;;;;;;;;;;5.50;55.70;;;3.42;59.57;102507.31;12254516;19;20283;-87
2024/01/12 10:24:42;;;;;;;;;;;5.20;55.50;;;3.46;59.61;102524.56;12255581;19;19923;-86
2024/01/12 10:28:44;;;;;;;;;;;5.20;55.50;;;3.24;59.77;102487.47;12251772;19;19914;-87
2024/01/12 10:32:51;;;;;;;;;;;5.20;55.60;;;3.37;59.41;102513.31;12253813;19;19923;-86
2024/01/12 10:36:56;;;;;;;;;;;5.10;55.60;;;3.40;59.59;102540.00;12253330;19;19915;-86
2024/01/12 10:40:59;;;;;;;;;;;5.10;55.60;;;3.39;59.71;102514.19;12254974;19;19933;-85
2024/01/12 10:45:03;;;;;;;;;;;5.10;55.60;;;3.43;59.66;102529.72;12254306;19;19918;-88
2024/01/12 10:49:17;;;;;;;;;;;5.10;55.60;;;3.44;59.62;102535.72;12255593;19;19978;-87
2024/01/12 10:53:42;;;;;;;;;;;5.10;55.60;;;3.46;59.77;102539.19;12250203;19;19919;-87
2024/01/12 10:57:44;;;;;;;;;;;5.30;55.70;;;3.39;59.59;102521.94;12246119;19;19915;-86
2024/01/12 11:01:47;;;;;;;;;;;5.20;55.70;;;3.39;59.62;102517.63;12253367;19;19947;-86
2024/01/12 11:05:49;;;;;;;;;;;5.10;55.70;;;3.20;59.65;102477.13;12250240;19;19925;-86
2024/01/12 11:09:51;;;;;;;;;;;5.10;55.70;;;3.31;59.78;102488.34;12247646;19;20245;-86
2024/01/12 11:13:54;;;;;;;;;;;5.10;55.70;;;3.35;59.70;102486.63;12248969;19;19978;-86
2024/01/12 11:17:56;;;;;;;;;;;5.10;55.70;;;3.37;59.59;102498.69;12245449;19;19922;-86
2024/01/12 11:22:06;;;;;;;;;;;5.10;55.70;;;3.28;59.67;102483.16;12253238;19;19911;-86
2024/01/12 11:26:08;;;;;;;;;;;5.00;55.70;;;3.28;59.66;102484.03;12250499;19;19924;-89
2024/01/12 11:30:10;;;;;;;;;;;5.10;55.70;;;3.33;59.89;102486.63;12250203;19;19919;-87
2024/01/12 11:34:13;;;;;;;;;;;5.10;55.80;;;3.31;59.66;102485.75;12255790;19;19926;-87
2024/01/12 11:38:17;;;;;;;;;;;5.10;55.80;;;3.39;59.90;102480.63;12258869;19;20642;-86
2024/01/12 11:42:19;;;;;;;;;;;5.10;55.80;;;3.39;59.81;102481.47;12260940;19;20330;-86
2024/01/12 11:46:24;;;;;;;;;;;5.10;55.80;;;3.42;59.88;102476.31;12256545;19;19950;-86
2024/01/12 11:50:27;;;;;;;;;;;5.10;55.80;;;3.41;59.82;102473.75;12261684;19;19943;-86
2024/01/12 11:54:28;;;;;;;;;;;5.10;55.80;;;3.15;59.73;102419.44;12258630;19;19926;-86
2024/01/12 11:58:32;;;;;;;;;;;5.20;55.80;;;3.27;59.61;102433.25;12257955;19;19923;-86
2024/01/12 12:02:35;;;;;;;;;;;5.20;55.80;;;3.42;59.64;102455.66;12259263;19;19919;-86
2024/01/12 12:06:36;;;;;;;;;;;5.20;55.80;;;3.46;59.68;102460.00;12254334;19;19930;-86
2024/01/12 12:10:38;;;;;;;;;;;5.40;55.80;;;3.43;59.53;102460.00;12250326;19;19926;-86
2024/01/12 12:14:55;;;;;;;;;;;5.20;55.80;;;3.17;59.74;102417.75;12249308;19;19939;-85
2024/01/12 12:18:56;;;;;;;;;;;5.10;55.70;;;3.29;59.80;102439.31;12247551;19;20314;-85
2024/01/12 12:22:58;;;;;;;;;;;5.30;55.80;;;3.37;59.90;102433.28;12248460;19;19922;-84
2024/01/12 12:27:00;;;;;;;;;;;5.10;55.70;;;3.37;59.65;102434.13;12246955;19;20343;-85
2024/01/12 12:31:05;;;;;;;;;;;5.20;55.80;;;3.37;59.77;102436.72;12249535;19;20365;-86
2024/01/12 12:35:17;;;;;;;;;;;5.10;55.80;;;3.29;59.70;102416.06;12250616;19;19939;-87
2024/01/12 12:39:19;;;;;;;;;;;5.10;55.80;;;3.35;59.84;102420.38;12249618;19;19934;-86
2024/01/12 12:43:21;;;;;;;;;;;5.00;55.80;;;3.30;59.71;102409.19;12250204;19;19917;-87
2024/01/12 12:47:24;;;;;;;;;;;5.00;55.80;;;3.06;59.70;102354.06;12244275;19;19928;-86
2024/01/12 12:51:26;;;;;;;;;;;5.20;55.80;;;3.28;59.79;102374.75;12248346;19;21202;-85
2024/01/12 12:55:27;;;;;;;;;;;5.00;55.80;;;3.16;59.56;102354.94;12240517;19;19927;-85
2024/01/12 12:59:37;;;;;;;;;;;5.00;55.80;;;3.35;59.59;102371.31;12247534;19;19915;-86
2024/01/12 13:03:38;;;;;;;;;;;5.00;55.70;;;3.10;59.82;102329.94;12245241;19;20364;-86
2024/01/12 13:07:39;;;;;;;;;;;5.00;55.80;;;3.21;59.50;102348.03;12232811;19;19915;-86
2024/01/12 13:11:41;;;;;;;;;;;5.10;55.80;;;3.23;59.81;102341.16;12246801;19;20256;-85
2024/01/12 13:15:42;;;;;;;;;;;5.30;55.90;;;3.20;59.71;102323.09;12243145;19;19926;-86
2024/01/12 13:19:44;;;;;;;;;;;5.00;55.80;;;3.17;59.82;102315.34;12238910;19;19926;-86
2024/01/12 13:23:45;;;;;;;;;;;5.00;55.80;;;3.30;59.70;102336.88;12245337;19;19922;-85
2024/01/12 13:27:47;;;;;;;;;;;5.00;55.80;;;3.25;59.64;102323.13;12245634;19;19934;-86
2024/01/12 13:31:49;;;;;;;;;;;4.90;55.80;;;3.28;59.59;102338.59;12247298;19;20337;-86
2024/01/12 13:35:51;;;;;;;;;;;4.90;55.80;;;3.25;59.62;102336.03;12251546;19;19931;-85
2024/01/12 13:39:52;;;;;;;;;;;5.00;55.70;;;3.15;59.70;102321.38;12258231;19;19942;-86
2024/01/12 13:43:54;;;;;;;;;;;4.90;55.70;;;3.15;59.64;102342.03;12257197;19;19915;-86
2024/01/12 13:47:55;;;;;;;;;;;5.10;55.80;;;3.12;59.92;102340.28;12253372;19;19936;-86
2024/01/12 13:51:56;;;;;;;;;;;4.80;55.60;;;3.03;59.94;102342.88;12256848;19;19936;-86
2024/01/12 13:55:58;;;;;;;;;;;5.10;55.80;;;3.09;59.87;102346.31;12252446;19;19911;-86
2024/01/12 14:00:00;;;;;;;;;;;4.80;55.80;;;3.06;59.88;102324.81;12258911;19;19907;-86
2024/01/12 14:04:03;;;;;;;;;;;5.00;55.90;;;3.09;59.97;102338.56;12256115;19;19919;-86
2024/01/12 14:08:05;;;;;;;;;;;4.90;55.80;;;2.97;59.67;102315.34;12253958;19;20566;-86
2024/01/12 14:12:07;;;;;;;;;;;4.80;55.80;;;3.00;59.91;102325.66;12257491;19;19919;-86
2024/01/12 14:16:09;;;;;;;;;;;4.80;55.80;;;3.00;59.73;102315.34;12252079;19;19914;-87
2024/01/12 14:20:12;;;;;;;;;;;4.70;55.80;;;2.99;59.69;102303.28;12256883;19;19995;-86
2024/01/12 14:24:14;;;;;;;;;;;4.80;55.90;;;2.96;59.74;102300.69;12256215;19;19926;-86
2024/01/12 14:28:15;;;;;;;;;;;4.80;55.90;;;2.96;59.88;102303.28;12253828;19;19922;-86
2024/01/12 14:32:17;;;;;;;;;;;4.80;55.90;;;3.02;60.09;102325.66;12254090;19;19927;-87
2024/01/12 14:36:18;;;;;;;;;;;4.80;55.90;;;3.02;59.98;102311.00;12250972;19;19926;-86
2024/01/12 14:40:20;;;;;;;;;;;4.70;55.90;;;3.00;59.75;102302.44;12254721;19;20321;-86
2024/01/12 14:44:21;;;;;;;;;;;4.70;55.80;;;2.99;59.94;102305.84;12256235;19;19926;-86
2024/01/12 14:48:23;;;;;;;;;;;4.70;55.90;;;2.99;59.96;102305.00;12251596;19;19915;-86
2024/01/12 14:52:25;;;;;;;;;;;4.80;56.00;;;2.94;59.86;102283.47;12246545;19;19923;-86
2024/01/12 14:56:26;;;;;;;;;;;4.70;56.30;;;2.93;59.90;102282.63;12250167;19;20338;-86
2024/01/12 15:00:28;;;;;;;;;;;4.70;55.90;;;2.73;59.93;102250.75;12253834;19;19974;-86
2024/01/12 15:04:29;;;;;;;;;;;4.70;55.90;;;2.98;59.91;102283.50;12252055;19;20266;-85
2024/01/12 15:08:32;;;;;;;;;;;4.70;55.90;;;2.91;59.90;102279.19;12249659;19;20350;-85
2024/01/12 15:12:33;;;;;;;;;;;4.70;55.90;;;2.99;59.78;102280.06;12253983;19;19975;-86
2024/01/12 15:16:34;;;;;;;;;;;4.70;55.90;;;2.89;60.04;102255.13;12248784;19;19918;-86
2024/01/12 15:20:35;;;;;;;;;;;4.70;55.90;;;3.03;59.84;102271.47;12255438;19;19923;-86
2024/01/12 15:24:37;;;;;;;;;;;4.80;55.90;;;3.14;60.05;102281.81;12250120;19;19919;-86
2024/01/12 15:28:39;;;;;;;;;;;4.80;55.90;;;3.11;59.96;102263.75;12248528;19;20343;-86
2024/01/12 15:32:41;;;;;;;;;;;5.00;56.00;;;3.07;60.04;102252.53;12251236;19;19994;-86
2024/01/12 15:36:43;;;;;;;;;;;4.90;55.90;;;2.92;59.77;102226.75;12248163;19;19918;-86
2024/01/12 15:40:44;;;;;;;;;;;4.80;55.90;;;3.12;59.88;102275.78;12245159;19;20314;-86
2024/01/12 15:44:45;;;;;;;;;;;4.90;55.90;;;3.01;59.87;102262.00;12251744;19;19921;-86
2024/01/12 15:48:47;;;;;;;;;;;4.90;55.90;;;2.98;59.76;102280.06;12248853;19;19918;-86
2024/01/12 15:52:48;;;;;;;;;;;4.90;55.80;;;3.04;59.67;102313.63;12251383;19;19972;-86
2024/01/12 15:57:13;;;;;;;;;;;5.00;55.80;;;2.97;59.68;102323.06;12249952;19;19922;-86
2024/01/12 16:01:27;;;;;;;;;;;4.90;55.80;;;2.59;59.92;102268.78;12255519;19;20380;-87
2024/01/12 16:05:35;;;;;;;;;;;4.80;55.70;;;2.75;59.82;102274.84;12255972;19;19986;-87
2024/01/12 16:09:47;;;;;;;;;;;4.80;55.70;;;2.41;59.86;102220.63;12256761;19;19950;-86
2024/01/12 16:14:04;;;;;;;;;;;4.70;55.70;;;2.55;59.82;102228.41;12258393;19;19950;-86
2024/01/12 16:18:15;;;;;;;;;;;4.80;55.70;;;2.45;59.86;102204.28;12248847;19;20458;-86
2024/01/12 16:22:21;;;;;;;;;;;4.60;55.70;;;2.57;59.75;102214.66;12255942;19;20380;-86
2024/01/12 16:27:05;;;;;;;;;;;4.80;55.80;;;2.59;59.80;102212.06;12254554;19;20380;-86
2024/01/12 16:31:21;;;;;;;;;;;4.60;55.70;;;2.47;59.95;102166.50;12252404;19;19923;-86
2024/01/12 17:01:11;;;;;;;;;;;4.70;55.80;;;2.76;59.94;102196.63;12248256;19;19923;-86
2024/01/12 17:05:47;;;;;;;;;;;4.70;55.80;;;3.03;59.92;102224.16;12248257;19;20344;-86
2024/01/12 17:11:03;;;;;;;;;;;;;;;;;;;;;
2024/01/12 17:16:05;;;;;;;;;;;4.80;55.90;;;3.07;59.98;102225.88;12257868;19;19924;-86
2024/01/12 17:20:17;;;;;;;;;;;4.70;55.90;;;2.41;59.84;102114.94;12264635;19;19911;-86
2024/01/12 17:24:24;;;;;;;;;;;4.80;55.90;;;3.05;60.01;102212.97;12259933;19;19915;-86
2024/01/12 17:28:25;;;;;;;;;;;4.80;55.90;;;3.01;59.83;102185.44;12257499;19;20013;-86
2024/01/12 17:32:29;;;;;;;;;;;4.80;55.90;;;3.11;59.76;102186.31;12255741;19;20226;-86
2024/01/12 17:36:33;;;;;;;;;;;4.80;55.90;;;2.94;59.88;102152.75;12252704;19;20319;-86
2024/01/12 17:40:38;;;;;;;;;;;4.80;55.90;;;2.48;59.73;102074.53;12254628;19;19915;-86
2024/01/12 17:44:39;;;;;;;;;;;4.90;55.90;;;3.13;59.84;102179.41;12254790;19;19918;-87
2024/01/12 17:48:41;;;;;;;;;;;4.80;55.90;;;2.80;59.93;102119.22;12248416;19;19926;-86
2024/01/12 17:52:43;;;;;;;;;;;5.00;56.00;;;2.61;59.86;102086.56;12254646;19;20329;-86
2024/01/12 17:56:45;;;;;;;;;;;4.80;55.90;;;2.60;59.73;102088.28;12250870;19;19931;-87
2024/01/12 18:00:46;;;;;;;;;;;4.90;55.90;;;3.16;59.89;102145.00;12253486;19;19914;-86
2024/01/12 18:04:48;;;;;;;;;;;4.90;55.90;;;3.02;60.06;102112.31;12254774;19;19926;-86
2024/01/12 18:08:50;;;;;;;;;;;4.90;55.90;;;3.10;59.88;102128.66;12249387;19;19927;-86
2024/01/12 18:12:51;;;;;;;;;;;5.00;56.00;;;2.77;59.88;102072.81;12250912;19;20000;-86
2024/01/12 18:16:53;;;;;;;;;;;4.90;55.90;;;2.80;59.87;102077.97;12248976;19;19926;-86
2024/01/12 18:20:55;;;;;;;;;;;5.10;56.10;;;2.65;59.90;102047.03;12252845;19;19926;-86
2024/01/12 18:24:56;;;;;;;;;;;4.90;56.00;;;2.95;59.93;102086.56;12253962;19;19942;-86
2024/01/12 18:29:02;;;;;;;;;;;4.80;55.90;;;3.14;60.03;102126.94;12252314;19;21718;-86
2024/01/12 18:33:04;;;;;;;;;;;4.90;56.00;;;3.18;59.95;102140.69;12254314;19;19940;-87
2024/01/12 18:37:05;;;;;;;;;;;4.90;56.00;;;3.10;60.00;102126.06;12251031;19;19978;-86
2024/01/12 18:41:07;;;;;;;;;;;5.00;56.10;;;2.94;59.95;102093.41;12252601;19;19915;-86
2024/01/12 18:45:09;;;;;;;;;;;4.90;56.10;;;3.13;60.06;102116.63;12255108;19;19938;-86
2024/01/12 18:49:10;;;;;;;;;;;4.80;56.00;;;3.06;59.87;102111.47;12254046;19;19923;-86
2024/01/12 18:53:12;;;;;;;;;;;4.90;56.10;;;3.19;59.91;102106.31;12249378;19;20305;-86
2024/01/12 18:57:14;;;;;;;;;;;5.00;56.10;;;3.12;59.97;102087.38;12252164;19;19915;-86
2024/01/12 19:01:15;;;;;;;;;;;4.90;56.10;;;3.05;60.24;102065.91;12251759;19;19976;-86
2024/01/12 19:05:16;;;;;;;;;;;4.90;56.20;;;3.23;60.25;102087.34;12251915;19;19930;-86